sensor_id;sensor_type;location;lat;lon;timestamp;pressure;altitude;pressure_sealevel;temperature;humidity
81387;BME280;70842;50.744;7.114;2023-12-14T00:02:08;100130.63;;;10.05;70.27
81387;BME280;70842;50.744;7.114;2023-12-14T00:04:35;100134.66;;;10.30;69.33
81387;BME280;70842;50.744;7.114;2023-12-14T00:07:01;100133.13;;;10.37;68.99
81387;BME280;70842;50.744;7.114;2023-12-14T00:09:27;100136.03;;;10.24;69.47
81387;BME280;70842;50.744;7.114;2023-12-14T00:11:54;100142.31;;;9.72;71.41
81387;BME280;70842;50.744;7.114;2023-12-14T00:14:20;100147.53;;;9.83;71.33
81387;BME280;70842;50.744;7.114;2023-12-14T00:16:46;100151.31;;;9.39;72.92
81387;BME280;70842;50.744;7.114;2023-12-14T00:19:13;100156.41;;;9.52;73.32
81387;BME280;70842;50.744;7.114;2023-12-14T00:21:39;100152.69;;;9.85;72.28
81387;BME280;70842;50.744;7.114;2023-12-14T00:24:06;100154.38;;;9.86;72.44
81387;BME280;70842;50.744;7.114;2023-12-14T00:26:33;100149.50;;;10.11;72.04
81387;BME280;70842;50.744;7.114;2023-12-14T00:28:59;100154.13;;;10.29;71.61
81387;BME280;70842;50.744;7.114;2023-12-14T00:31:28;100161.56;;;10.35;71.36
81387;BME280;70842;50.744;7.114;2023-12-14T00:33:54;100159.88;;;10.24;71.48
81387;BME280;70842;50.744;7.114;2023-12-14T00:36:21;100165.16;;;10.34;71.87
81387;BME280;70842;50.744;7.114;2023-12-14T00:38:47;100173.56;;;10.48;71.55
81387;BME280;70842;50.744;7.114;2023-12-14T00:41:14;100181.13;;;10.53;71.43
81387;BME280;70842;50.744;7.114;2023-12-14T00:43:40;100171.38;;;10.53;71.40
81387;BME280;70842;50.744;7.114;2023-12-14T00:46:07;100180.03;;;10.65;71.57
81387;BME280;70842;50.744;7.114;2023-12-14T00:48:34;100187.16;;;10.64;71.33
81387;BME280;70842;50.744;7.114;2023-12-14T00:51:00;100183.13;;;10.70;71.13
81387;BME280;70842;50.744;7.114;2023-12-14T00:53:26;100189.88;;;10.44;72.19
81387;BME280;70842;50.744;7.114;2023-12-14T00:55:53;100200.06;;;10.39;72.85
81387;BME280;70842;50.744;7.114;2023-12-14T00:58:19;100202.25;;;10.34;73.19
81387;BME280;70842;50.744;7.114;2023-12-14T01:00:46;100205.59;;;10.36;73.25
81387;BME280;70842;50.744;7.114;2023-12-14T01:03:13;100206.13;;;10.30;73.34
81387;BME280;70842;50.744;7.114;2023-12-14T01:05:39;100210.50;;;10.40;73.20
81387;BME280;70842;50.744;7.114;2023-12-14T01:08:06;100218.22;;;10.53;72.80
81387;BME280;70842;50.744;7.114;2023-12-14T01:10:32;100225.75;;;10.57;72.38
81387;BME280;70842;50.744;7.114;2023-12-14T01:12:59;100226.59;;;10.67;72.14
81387;BME280;70842;50.744;7.114;2023-12-14T01:15:26;100231.75;;;10.69;72.17
81387;BME280;70842;50.744;7.114;2023-12-14T01:17:52;100231.94;;;10.77;72.35
81387;BME280;70842;50.744;7.114;2023-12-14T01:20:19;100241.00;;;10.84;72.06
81387;BME280;70842;50.744;7.114;2023-12-14T01:22:45;100239.72;;;10.69;72.35
81387;BME280;70842;50.744;7.114;2023-12-14T01:25:12;100245.31;;;10.66;72.76
81387;BME280;70842;50.744;7.114;2023-12-14T01:27:38;100256.69;;;10.57;73.15
81387;BME280;70842;50.744;7.114;2023-12-14T01:30:05;100256.91;;;10.35;73.89
81387;BME280;70842;50.744;7.114;2023-12-14T01:32:32;100258.03;;;10.42;74.39
81387;BME280;70842;50.744;7.114;2023-12-14T01:34:59;100269.38;;;10.23;75.05
81387;BME280;70842;50.744;7.114;2023-12-14T01:37:25;100274.84;;;10.61;74.07
81387;BME280;70842;50.744;7.114;2023-12-14T01:39:51;100273.69;;;10.54;73.71
81387;BME280;70842;50.744;7.114;2023-12-14T01:42:18;100278.19;;;10.63;73.77
81387;BME280;70842;50.744;7.114;2023-12-14T01:44:44;100285.38;;;10.82;73.55
81387;BME280;70842;50.744;7.114;2023-12-14T01:47:11;100293.06;;;10.25;75.36
81387;BME280;70842;50.744;7.114;2023-12-14T01:49:37;100289.25;;;10.38;75.53
81387;BME280;70842;50.744;7.114;2023-12-14T01:52:04;100296.84;;;10.52;74.91
81387;BME280;70842;50.744;7.114;2023-12-14T01:54:30;100309.19;;;10.42;75.74
81387;BME280;70842;50.744;7.114;2023-12-14T01:56:57;100310.22;;;10.51;75.42
81387;BME280;70842;50.744;7.114;2023-12-14T01:59:23;100323.16;;;10.44;75.68
81387;BME280;70842;50.744;7.114;2023-12-14T02:01:54;100321.97;;;10.58;75.23
81387;BME280;70842;50.744;7.114;2023-12-14T02:04:24;100329.16;;;10.46;75.84
81387;BME280;70842;50.744;7.114;2023-12-14T02:06:51;100328.47;;;10.24;76.75
81387;BME280;70842;50.744;7.114;2023-12-14T02:09:17;100334.88;;;10.21;76.95
81387;BME280;70842;50.744;7.114;2023-12-14T02:11:44;100336.72;;;10.51;75.81
81387;BME280;70842;50.744;7.114;2023-12-14T02:14:11;100337.75;;;10.39;76.18
81387;BME280;70842;50.744;7.114;2023-12-14T02:16:38;100347.31;;;10.51;75.50
81387;BME280;70842;50.744;7.114;2023-12-14T02:19:05;100339.81;;;10.56;75.13
81387;BME280;70842;50.744;7.114;2023-12-14T02:21:32;100349.38;;;10.27;76.32
81387;BME280;70842;50.744;7.114;2023-12-14T02:23:58;100349.53;;;9.93;78.42
81387;BME280;70842;50.744;7.114;2023-12-14T02:26:24;100353.69;;;10.07;77.41
81387;BME280;70842;50.744;7.114;2023-12-14T02:28:51;100349.28;;;10.28;76.88
81387;BME280;70842;50.744;7.114;2023-12-14T02:31:19;100358.50;;;10.34;76.64
81387;BME280;70842;50.744;7.114;2023-12-14T02:33:45;100353.31;;;10.53;75.63
81387;BME280;70842;50.744;7.114;2023-12-14T02:36:12;100363.44;;;10.48;75.85
81387;BME280;70842;50.744;7.114;2023-12-14T02:38:38;100353.72;;;10.28;75.89
81387;BME280;70842;50.744;7.114;2023-12-14T02:41:05;100368.94;;;10.35;76.48
81387;BME280;70842;50.744;7.114;2023-12-14T02:43:31;100374.69;;;10.40;76.13
81387;BME280;70842;50.744;7.114;2023-12-14T02:45:57;100370.84;;;10.24;77.10
81387;BME280;70842;50.744;7.114;2023-12-14T02:48:28;100379.53;;;10.14;77.53
81387;BME280;70842;50.744;7.114;2023-12-14T02:50:55;100377.56;;;10.28;76.89
81387;BME280;70842;50.744;7.114;2023-12-14T02:53:22;100386.53;;;10.15;77.75
81387;BME280;70842;50.744;7.114;2023-12-14T02:55:49;100386.63;;;10.14;77.24
81387;BME280;70842;50.744;7.114;2023-12-14T02:58:15;100395.63;;;10.23;76.94
81387;BME280;70842;50.744;7.114;2023-12-14T03:00:41;100403.88;;;10.50;76.13
81387;BME280;70842;50.744;7.114;2023-12-14T03:03:08;100411.66;;;10.10;77.62
81387;BME280;70842;50.744;7.114;2023-12-14T03:05:34;100406.34;;;10.42;76.40
81387;BME280;70842;50.744;7.114;2023-12-14T03:08:01;100416.13;;;10.41;76.69
81387;BME280;70842;50.744;7.114;2023-12-14T03:10:27;100414.09;;;10.34;76.77
81387;BME280;70842;50.744;7.114;2023-12-14T03:12:54;100413.53;;;10.51;76.29
81387;BME280;70842;50.744;7.114;2023-12-14T03:15:20;100418.97;;;10.49;76.42
81387;BME280;70842;50.744;7.114;2023-12-14T03:17:46;100417.25;;;10.69;75.56
81387;BME280;70842;50.744;7.114;2023-12-14T03:20:13;100425.47;;;10.66;75.61
81387;BME280;70842;50.744;7.114;2023-12-14T03:22:40;100427.59;;;10.72;75.40
81387;BME280;70842;50.744;7.114;2023-12-14T03:25:08;100425.97;;;10.80;75.02
81387;BME280;70842;50.744;7.114;2023-12-14T03:27:35;100428.75;;;10.79;74.89
81387;BME280;70842;50.744;7.114;2023-12-14T03:30:02;100435.34;;;10.84;74.72
81387;BME280;70842;50.744;7.114;2023-12-14T03:32:34;100434.06;;;10.79;74.79
81387;BME280;70842;50.744;7.114;2023-12-14T03:35:01;100437.25;;;10.73;74.82
81387;BME280;70842;50.744;7.114;2023-12-14T03:37:27;100449.47;;;10.64;75.47
81387;BME280;70842;50.744;7.114;2023-12-14T03:39:53;100454.06;;;10.62;75.70
81387;BME280;70842;50.744;7.114;2023-12-14T03:42:21;100456.59;;;10.73;75.22
81387;BME280;70842;50.744;7.114;2023-12-14T03:44:47;100465.34;;;10.85;74.71
81387;BME280;70842;50.744;7.114;2023-12-14T03:47:14;100466.06;;;10.87;74.69
81387;BME280;70842;50.744;7.114;2023-12-14T03:49:40;100470.56;;;10.55;75.57
81387;BME280;70842;50.744;7.114;2023-12-14T03:52:08;100473.50;;;10.52;75.48
81387;BME280;70842;50.744;7.114;2023-12-14T03:54:34;100473.56;;;10.41;76.46
81387;BME280;70842;50.744;7.114;2023-12-14T03:57:01;100479.38;;;10.35;76.20
81387;BME280;70842;50.744;7.114;2023-12-14T03:59:27;100489.41;;;10.52;76.17
81387;BME280;70842;50.744;7.114;2023-12-14T04:01:54;100499.00;;;10.32;76.32
81387;BME280;70842;50.744;7.114;2023-12-14T04:04:20;100500.81;;;10.09;77.44
81387;BME280;70842;50.744;7.114;2023-12-14T04:06:46;100507.00;;;9.99;77.78
81387;BME280;70842;50.744;7.114;2023-12-14T04:09:13;100505.69;;;10.15;77.41
81387;BME280;70842;50.744;7.114;2023-12-14T04:11:39;100515.13;;;10.29;76.35
81387;BME280;70842;50.744;7.114;2023-12-14T04:14:05;100518.69;;;9.96;76.75
81387;BME280;70842;50.744;7.114;2023-12-14T04:16:32;100522.50;;;10.03;76.41
81387;BME280;70842;50.744;7.114;2023-12-14T04:18:59;100529.41;;;10.38;75.46
81387;BME280;70842;50.744;7.114;2023-12-14T04:21:25;100538.34;;;10.37;75.01
81387;BME280;70842;50.744;7.114;2023-12-14T04:23:51;100544.91;;;9.99;75.89
81387;BME280;70842;50.744;7.114;2023-12-14T04:26:18;100543.59;;;9.94;75.58
81387;BME280;70842;50.744;7.114;2023-12-14T04:28:44;100554.19;;;9.83;76.35
81387;BME280;70842;50.744;7.114;2023-12-14T04:31:12;100564.28;;;9.78;76.15
81387;BME280;70842;50.744;7.114;2023-12-14T04:33:38;100571.03;;;9.82;76.24
81387;BME280;70842;50.744;7.114;2023-12-14T04:36:06;100573.34;;;9.75;76.46
81387;BME280;70842;50.744;7.114;2023-12-14T04:38:33;100572.25;;;9.67;76.85
81387;BME280;70842;50.744;7.114;2023-12-14T04:40:59;100576.09;;;9.63;77.11
81387;BME280;70842;50.744;7.114;2023-12-14T04:43:26;100583.44;;;9.70;76.40
81387;BME280;70842;50.744;7.114;2023-12-14T04:45:55;100585.00;;;9.84;75.99
81387;BME280;70842;50.744;7.114;2023-12-14T04:48:22;100590.28;;;9.84;76.08
81387;BME280;70842;50.744;7.114;2023-12-14T04:50:48;100587.59;;;9.95;75.39
81387;BME280;70842;50.744;7.114;2023-12-14T04:53:14;100589.06;;;9.66;76.62
81387;BME280;70842;50.744;7.114;2023-12-14T04:55:41;100601.69;;;9.84;76.08
81387;BME280;70842;50.744;7.114;2023-12-14T04:58:10;100611.31;;;9.74;76.40
81387;BME280;70842;50.744;7.114;2023-12-14T05:00:38;100616.59;;;9.63;76.69
81387;BME280;70842;50.744;7.114;2023-12-14T05:03:04;100613.59;;;9.57;76.87
81387;BME280;70842;50.744;7.114;2023-12-14T05:05:30;100618.28;;;9.53;76.20
81387;BME280;70842;50.744;7.114;2023-12-14T05:07:57;100626.63;;;9.82;75.27
81387;BME280;70842;50.744;7.114;2023-12-14T05:10:23;100624.78;;;9.82;74.99
81387;BME280;70842;50.744;7.114;2023-12-14T05:12:50;100632.25;;;9.99;73.98
81387;BME280;70842;50.744;7.114;2023-12-14T05:15:16;100644.41;;;9.91;74.15
81387;BME280;70842;50.744;7.114;2023-12-14T05:17:45;100644.16;;;9.72;74.95
81387;BME280;70842;50.744;7.114;2023-12-14T05:20:11;100652.63;;;9.42;75.50
81387;BME280;70842;50.744;7.114;2023-12-14T05:22:38;100668.75;;;9.39;75.78
81387;BME280;70842;50.744;7.114;2023-12-14T05:25:05;100660.16;;;9.70;74.42
81387;BME280;70842;50.744;7.114;2023-12-14T05:27:32;100662.31;;;9.76;74.49
81387;BME280;70842;50.744;7.114;2023-12-14T05:29:58;100661.34;;;9.66;74.15
81387;BME280;70842;50.744;7.114;2023-12-14T05:32:25;100667.84;;;9.84;74.21
81387;BME280;70842;50.744;7.114;2023-12-14T05:34:51;100668.31;;;9.56;74.26
81387;BME280;70842;50.744;7.114;2023-12-14T05:37:18;100673.50;;;9.69;74.19
81387;BME280;70842;50.744;7.114;2023-12-14T05:39:44;100674.97;;;9.84;73.45
81387;BME280;70842;50.744;7.114;2023-12-14T05:42:11;100677.72;;;9.82;73.57
81387;BME280;70842;50.744;7.114;2023-12-14T05:44:38;100674.47;;;9.79;73.26
81387;BME280;70842;50.744;7.114;2023-12-14T05:47:04;100686.97;;;9.99;73.08
81387;BME280;70842;50.744;7.114;2023-12-14T05:49:31;100685.91;;;9.79;73.44
81387;BME280;70842;50.744;7.114;2023-12-14T05:51:59;100686.09;;;9.65;74.09
81387;BME280;70842;50.744;7.114;2023-12-14T05:54:25;100694.69;;;9.91;73.42
81387;BME280;70842;50.744;7.114;2023-12-14T05:56:52;100696.72;;;9.76;73.49
81387;BME280;70842;50.744;7.114;2023-12-14T05:59:18;100697.16;;;9.59;73.72
81387;BME280;70842;50.744;7.114;2023-12-14T06:01:45;100717.63;;;9.68;73.75
81387;BME280;70842;50.744;7.114;2023-12-14T06:04:11;100717.03;;;9.65;74.07
81387;BME280;70842;50.744;7.114;2023-12-14T06:06:38;100726.00;;;9.51;74.27
81387;BME280;70842;50.744;7.114;2023-12-14T06:09:05;100715.88;;;9.10;75.37
81387;BME280;70842;50.744;7.114;2023-12-14T06:11:35;100731.28;;;9.51;74.70
81387;BME280;70842;50.744;7.114;2023-12-14T06:14:02;100727.66;;;9.41;74.93
81387;BME280;70842;50.744;7.114;2023-12-14T06:16:28;100736.59;;;9.51;74.90
81387;BME280;70842;50.744;7.114;2023-12-14T06:18:55;100735.50;;;9.19;75.15
81387;BME280;70842;50.744;7.114;2023-12-14T06:21:22;100751.69;;;9.14;75.89
81387;BME280;70842;50.744;7.114;2023-12-14T06:23:51;100764.47;;;9.20;75.10
81387;BME280;70842;50.744;7.114;2023-12-14T06:26:18;100765.22;;;8.99;76.61
81387;BME280;70842;50.744;7.114;2023-12-14T06:28:44;100773.50;;;9.29;75.25
81387;BME280;70842;50.744;7.114;2023-12-14T06:31:15;100776.88;;;9.31;75.40
81387;BME280;70842;50.744;7.114;2023-12-14T06:33:41;100780.31;;;9.44;74.50
81387;BME280;70842;50.744;7.114;2023-12-14T06:36:08;100778.53;;;9.44;74.72
81387;BME280;70842;50.744;7.114;2023-12-14T06:38:38;100794.50;;;9.43;74.63
81387;BME280;70842;50.744;7.114;2023-12-14T06:41:05;100800.00;;;9.40;74.65
81387;BME280;70842;50.744;7.114;2023-12-14T06:43:32;100801.66;;;9.30;75.23
81387;BME280;70842;50.744;7.114;2023-12-14T06:45:58;100801.66;;;9.30;74.86
81387;BME280;70842;50.744;7.114;2023-12-14T06:48:24;100809.41;;;9.44;74.62
81387;BME280;70842;50.744;7.114;2023-12-14T06:50:51;100824.06;;;9.37;75.00
81387;BME280;70842;50.744;7.114;2023-12-14T06:53:20;100832.00;;;9.01;75.55
81387;BME280;70842;50.744;7.114;2023-12-14T06:55:47;100834.88;;;8.98;75.55
81387;BME280;70842;50.744;7.114;2023-12-14T06:58:13;100840.50;;;8.81;75.79
81387;BME280;70842;50.744;7.114;2023-12-14T07:00:40;100851.97;;;8.56;77.14
81387;BME280;70842;50.744;7.114;2023-12-14T07:03:06;100860.50;;;8.72;76.49
81387;BME280;70842;50.744;7.114;2023-12-14T07:05:33;100862.06;;;8.75;76.50
81387;BME280;70842;50.744;7.114;2023-12-14T07:08:00;100868.66;;;8.44;77.26
81387;BME280;70842;50.744;7.114;2023-12-14T07:10:27;100869.06;;;8.50;77.24
81387;BME280;70842;50.744;7.114;2023-12-14T07:12:53;100886.50;;;8.53;76.79
81387;BME280;70842;50.744;7.114;2023-12-14T07:15:19;100883.22;;;8.62;77.12
81387;BME280;70842;50.744;7.114;2023-12-14T07:17:46;100889.78;;;8.69;76.20
81387;BME280;70842;50.744;7.114;2023-12-14T07:20:12;100889.56;;;8.59;76.59
81387;BME280;70842;50.744;7.114;2023-12-14T07:22:39;100896.63;;;8.72;76.47
81387;BME280;70842;50.744;7.114;2023-12-14T07:25:06;100894.22;;;8.69;76.51
81387;BME280;70842;50.744;7.114;2023-12-14T07:27:32;100901.81;;;8.73;76.46
81387;BME280;70842;50.744;7.114;2023-12-14T07:29:59;100915.09;;;8.46;77.54
81387;BME280;70842;50.744;7.114;2023-12-14T07:32:25;100908.56;;;8.39;78.18
81387;BME280;70842;50.744;7.114;2023-12-14T07:34:52;100911.94;;;8.29;79.06
81387;BME280;70842;50.744;7.114;2023-12-14T07:37:19;100921.94;;;8.24;78.88
81387;BME280;70842;50.744;7.114;2023-12-14T07:39:45;100927.25;;;8.36;78.85
81387;BME280;70842;50.744;7.114;2023-12-14T07:42:12;100934.75;;;8.42;78.21
81387;BME280;70842;50.744;7.114;2023-12-14T07:44:41;100932.56;;;8.74;76.97
81387;BME280;70842;50.744;7.114;2023-12-14T07:47:07;100943.84;;;8.51;77.25
81387;BME280;70842;50.744;7.114;2023-12-14T07:49:34;100951.47;;;8.68;76.94
81387;BME280;70842;50.744;7.114;2023-12-14T07:52:01;100954.09;;;8.68;76.54
81387;BME280;70842;50.744;7.114;2023-12-14T07:54:27;100941.94;;;8.65;76.59
81387;BME280;70842;50.744;7.114;2023-12-14T07:56:54;100959.94;;;8.60;77.15
81387;BME280;70842;50.744;7.114;2023-12-14T07:59:21;100965.66;;;8.67;76.61
81387;BME280;70842;50.744;7.114;2023-12-14T08:01:47;100966.66;;;8.39;77.58
81387;BME280;70842;50.744;7.114;2023-12-14T08:04:14;100965.59;;;8.42;77.59
81387;BME280;70842;50.744;7.114;2023-12-14T08:06:40;100985.75;;;8.30;78.14
81387;BME280;70842;50.744;7.114;2023-12-14T08:09:07;100992.97;;;8.14;78.80
81387;BME280;70842;50.744;7.114;2023-12-14T08:11:34;100996.44;;;7.88;79.67
81387;BME280;70842;50.744;7.114;2023-12-14T08:14:00;101005.28;;;7.87;80.38
81387;BME280;70842;50.744;7.114;2023-12-14T08:16:28;101009.50;;;8.30;78.75
81387;BME280;70842;50.744;7.114;2023-12-14T08:18:54;101017.91;;;7.96;79.36
81387;BME280;70842;50.744;7.114;2023-12-14T08:21:20;101026.84;;;8.08;79.55
81387;BME280;70842;50.744;7.114;2023-12-14T08:23:47;101033.63;;;7.98;79.62
81387;BME280;70842;50.744;7.114;2023-12-14T08:26:13;101028.56;;;7.95;80.14
81387;BME280;70842;50.744;7.114;2023-12-14T08:28:40;101036.66;;;8.06;78.88
81387;BME280;70842;50.744;7.114;2023-12-14T08:31:06;101041.31;;;7.88;79.46
81387;BME280;70842;50.744;7.114;2023-12-14T08:33:34;101050.13;;;8.01;79.15
81387;BME280;70842;50.744;7.114;2023-12-14T08:36:01;101057.50;;;8.23;78.81
81387;BME280;70842;50.744;7.114;2023-12-14T08:38:27;101045.63;;;7.89;79.54
81387;BME280;70842;50.744;7.114;2023-12-14T08:40:56;101049.78;;;7.79;79.85
81387;BME280;70842;50.744;7.114;2023-12-14T08:43:22;101062.06;;;8.07;78.82
81387;BME280;70842;50.744;7.114;2023-12-14T08:45:49;101063.06;;;8.32;77.70
81387;BME280;70842;50.744;7.114;2023-12-14T08:48:15;101063.72;;;7.95;78.52
81387;BME280;70842;50.744;7.114;2023-12-14T08:50:42;101070.16;;;8.44;77.49
81387;BME280;70842;50.744;7.114;2023-12-14T08:53:08;101072.28;;;8.39;77.12
81387;BME280;70842;50.744;7.114;2023-12-14T08:55:35;101084.13;;;8.46;76.71
81387;BME280;70842;50.744;7.114;2023-12-14T08:58:02;101085.81;;;8.47;76.89
81387;BME280;70842;50.744;7.114;2023-12-14T09:00:28;101099.91;;;8.34;76.82
81387;BME280;70842;50.744;7.114;2023-12-14T09:02:54;101103.59;;;8.58;76.37
81387;BME280;70842;50.744;7.114;2023-12-14T09:05:21;101109.63;;;8.60;75.52
81387;BME280;70842;50.744;7.114;2023-12-14T09:07:48;101107.75;;;8.35;76.31
81387;BME280;70842;50.744;7.114;2023-12-14T09:10:14;101117.25;;;8.38;76.18
81387;BME280;70842;50.744;7.114;2023-12-14T09:12:41;101121.91;;;8.20;76.65
81387;BME280;70842;50.744;7.114;2023-12-14T09:15:07;101130.78;;;8.33;75.80
81387;BME280;70842;50.744;7.114;2023-12-14T09:17:34;101133.91;;;8.12;76.74
81387;BME280;70842;50.744;7.114;2023-12-14T09:20:03;101138.13;;;8.00;77.39
81387;BME280;70842;50.744;7.114;2023-12-14T09:22:33;101133.09;;;8.24;76.36
81387;BME280;70842;50.744;7.114;2023-12-14T09:24:59;101139.91;;;8.28;76.45
81387;BME280;70842;50.744;7.114;2023-12-14T09:27:26;101148.28;;;8.61;75.30
81387;BME280;70842;50.744;7.114;2023-12-14T09:29:52;101148.84;;;8.39;75.76
81387;BME280;70842;50.744;7.114;2023-12-14T09:32:19;101156.44;;;8.58;75.01
81387;BME280;70842;50.744;7.114;2023-12-14T09:34:45;101160.63;;;8.34;75.50
81387;BME280;70842;50.744;7.114;2023-12-14T09:37:12;101172.38;;;8.56;74.84
81387;BME280;70842;50.744;7.114;2023-12-14T09:39:40;101173.19;;;8.16;75.82
81387;BME280;70842;50.744;7.114;2023-12-14T09:42:07;101184.50;;;8.18;76.12
81387;BME280;70842;50.744;7.114;2023-12-14T09:44:35;101185.44;;;8.31;75.82
81387;BME280;70842;50.744;7.114;2023-12-14T09:47:03;101192.63;;;8.01;77.03
81387;BME280;70842;50.744;7.114;2023-12-14T09:49:30;101180.56;;;7.97;77.14
81387;BME280;70842;50.744;7.114;2023-12-14T09:51:57;101188.47;;;7.69;78.01
81387;BME280;70842;50.744;7.114;2023-12-14T09:54:25;101188.09;;;8.03;77.84
81387;BME280;70842;50.744;7.114;2023-12-14T09:56:52;101196.47;;;8.24;77.06
81387;BME280;70842;50.744;7.114;2023-12-14T09:59:21;101198.22;;;8.51;76.12
81387;BME280;70842;50.744;7.114;2023-12-14T10:01:48;101201.94;;;8.76;75.45
81387;BME280;70842;50.744;7.114;2023-12-14T10:04:16;101204.09;;;8.56;75.82
81387;BME280;70842;50.744;7.114;2023-12-14T10:06:45;101209.81;;;8.90;74.79
81387;BME280;70842;50.744;7.114;2023-12-14T10:09:11;101209.00;;;9.02;74.03
81387;BME280;70842;50.744;7.114;2023-12-14T10:11:45;101214.31;;;8.61;74.94
81387;BME280;70842;50.744;7.114;2023-12-14T10:14:25;101216.88;;;8.62;74.78
81387;BME280;70842;50.744;7.114;2023-12-14T10:16:52;101222.94;;;8.50;75.03
81387;BME280;70842;50.744;7.114;2023-12-14T10:19:28;101231.28;;;8.30;74.88
81387;BME280;70842;50.744;7.114;2023-12-14T10:21:55;101228.16;;;8.10;76.08
81387;BME280;70842;50.744;7.114;2023-12-14T10:24:22;101232.03;;;8.18;75.45
81387;BME280;70842;50.744;7.114;2023-12-14T10:26:49;101235.38;;;8.48;75.43
81387;BME280;70842;50.744;7.114;2023-12-14T10:29:17;101233.59;;;8.90;73.68
81387;BME280;70842;50.744;7.114;2023-12-14T10:31:43;101239.34;;;8.96;73.57
81387;BME280;70842;50.744;7.114;2023-12-14T10:34:10;101252.28;;;8.87;72.94
81387;BME280;70842;50.744;7.114;2023-12-14T10:36:39;101250.50;;;9.14;72.58
81387;BME280;70842;50.744;7.114;2023-12-14T10:39:08;101258.72;;;8.83;73.06
81387;BME280;70842;50.744;7.114;2023-12-14T10:41:37;101261.97;;;8.74;73.58
81387;BME280;70842;50.744;7.114;2023-12-14T10:44:04;101255.94;;;8.57;74.12
81387;BME280;70842;50.744;7.114;2023-12-14T10:46:55;101261.97;;;8.59;74.35
81387;BME280;70842;50.744;7.114;2023-12-14T10:49:25;101265.84;;;8.68;74.02
81387;BME280;70842;50.744;7.114;2023-12-14T10:51:53;101280.00;;;8.25;75.50
81387;BME280;70842;50.744;7.114;2023-12-14T10:54:23;101279.91;;;8.40;74.94
81387;BME280;70842;50.744;7.114;2023-12-14T10:56:54;101282.47;;;8.42;74.87
81387;BME280;70842;50.744;7.114;2023-12-14T10:59:20;101291.03;;;8.03;75.00
81387;BME280;70842;50.744;7.114;2023-12-14T11:01:52;101293.03;;;8.42;74.60
81387;BME280;70842;50.744;7.114;2023-12-14T11:04:21;101297.78;;;8.92;72.52
81387;BME280;70842;50.744;7.114;2023-12-14T11:06:48;101301.28;;;8.78;72.89
81387;BME280;70842;50.744;7.114;2023-12-14T11:09:17;101310.91;;;8.79;72.72
81387;BME280;70842;50.744;7.114;2023-12-14T11:14:23;101313.41;;;7.82;75.72
81387;BME280;70842;50.744;7.114;2023-12-14T11:16:54;101317.28;;;8.34;74.23
81387;BME280;70842;50.744;7.114;2023-12-14T11:24:24;101320.41;;;8.27;74.29
81387;BME280;70842;50.744;7.114;2023-12-14T11:26:50;101322.81;;;8.30;74.74
81387;BME280;70842;50.744;7.114;2023-12-14T11:29:17;101322.41;;;8.22;74.57
81387;BME280;70842;50.744;7.114;2023-12-14T11:31:45;101331.94;;;7.80;75.55
81387;BME280;70842;50.744;7.114;2023-12-14T11:34:15;101329.31;;;8.24;74.48
81387;BME280;70842;50.744;7.114;2023-12-14T11:36:41;101322.16;;;8.69;73.71
81387;BME280;70842;50.744;7.114;2023-12-14T11:39:09;101334.81;;;8.49;73.43
81387;BME280;70842;50.744;7.114;2023-12-14T11:41:35;101338.38;;;8.48;73.54
81387;BME280;70842;50.744;7.114;2023-12-14T11:44:04;101334.53;;;8.82;72.31
81387;BME280;70842;50.744;7.114;2023-12-14T11:46:31;101338.81;;;8.97;72.06
81387;BME280;70842;50.744;7.114;2023-12-14T11:48:58;101347.81;;;8.81;71.93
81387;BME280;70842;50.744;7.114;2023-12-14T11:51:25;101354.72;;;8.69;72.47
81387;BME280;70842;50.744;7.114;2023-12-14T11:53:52;101362.06;;;8.78;71.84
81387;BME280;70842;50.744;7.114;2023-12-14T11:56:19;101356.53;;;8.54;72.04
81387;BME280;70842;50.744;7.114;2023-12-14T11:58:46;101366.19;;;8.96;70.79
81387;BME280;70842;50.744;7.114;2023-12-14T12:01:18;101364.94;;;9.16;70.10
81387;BME280;70842;50.744;7.114;2023-12-14T12:03:45;101363.88;;;8.78;70.69
81387;BME280;70842;50.744;7.114;2023-12-14T12:08:49;101365.47;;;8.08;72.21
81387;BME280;70842;50.744;7.114;2023-12-14T12:11:20;101373.31;;;8.53;70.88
81387;BME280;70842;50.744;7.114;2023-12-14T12:13:52;101367.69;;;7.86;73.19
81387;BME280;70842;50.744;7.114;2023-12-14T12:16:19;101377.63;;;8.26;72.43
81387;BME280;70842;50.744;7.114;2023-12-14T12:18:46;101370.28;;;8.59;70.94
81387;BME280;70842;50.744;7.114;2023-12-14T12:21:13;101373.84;;;8.30;71.22
81387;BME280;70842;50.744;7.114;2023-12-14T12:23:39;101376.97;;;8.07;72.51
81387;BME280;70842;50.744;7.114;2023-12-14T12:26:08;101373.13;;;8.56;71.06
81387;BME280;70842;50.744;7.114;2023-12-14T12:28:35;101374.44;;;8.78;70.15
81387;BME280;70842;50.744;7.114;2023-12-14T12:31:01;101369.63;;;8.56;71.01
81387;BME280;70842;50.744;7.114;2023-12-14T12:33:27;101380.94;;;8.58;70.47
81387;BME280;70842;50.744;7.114;2023-12-14T12:35:54;101386.88;;;8.47;70.89
81387;BME280;70842;50.744;7.114;2023-12-14T12:38:22;101380.09;;;8.57;70.92
81387;BME280;70842;50.744;7.114;2023-12-14T12:40:49;101382.25;;;8.51;70.33
81387;BME280;70842;50.744;7.114;2023-12-14T12:43:15;101387.31;;;8.40;70.30
81387;BME280;70842;50.744;7.114;2023-12-14T12:45:42;101392.34;;;8.30;70.20
81387;BME280;70842;50.744;7.114;2023-12-14T12:48:09;101388.78;;;8.74;69.11
81387;BME280;70842;50.744;7.114;2023-12-14T12:50:36;101400.75;;;8.79;69.37
81387;BME280;70842;50.744;7.114;2023-12-14T12:53:03;101395.16;;;8.27;70.32
81387;BME280;70842;50.744;7.114;2023-12-14T12:55:29;101396.78;;;8.44;70.53
81387;BME280;70842;50.744;7.114;2023-12-14T12:57:56;101396.78;;;8.58;70.50
81387;BME280;70842;50.744;7.114;2023-12-14T13:00:22;101399.03;;;8.36;70.81
81387;BME280;70842;50.744;7.114;2023-12-14T13:02:49;101402.91;;;8.30;71.14
81387;BME280;70842;50.744;7.114;2023-12-14T13:05:15;101403.88;;;8.57;70.18
81387;BME280;70842;50.744;7.114;2023-12-14T13:07:45;101404.78;;;8.42;70.13